sensor_id;sensor_type;location;lat;lon;timestamp;P1;durP1;ratioP1;P2;durP2;ratioP2
20042;SDS011;10182;52.896;6.496;2022-09-09T00:00:49;15.47;;;11.97;;
20042;SDS011;10182;52.896;6.496;2022-09-09T00:06:01;14.93;;;11.33;;
20042;SDS011;10182;52.896;6.496;2022-09-09T00:11:09;14.53;;;10.13;;
20042;SDS011;10182;52.896;6.496;2022-09-09T00:16:19;16.47;;;11.47;;
20042;SDS011;10182;52.896;6.496;2022-09-09T00:21:26;18.90;;;11.33;;
20042;SDS011;10182;52.896;6.496;2022-09-09T00:26:35;12.17;;;11.03;;
20042;SDS011;10182;52.896;6.496;2022-09-09T00:31:39;14.97;;;10.93;;
20042;SDS011;10182;52.896;6.496;2022-09-09T00:36:42;12.43;;;10.10;;
20042;SDS011;10182;52.896;6.496;2022-09-09T00:41:48;14.67;;;10.53;;
20042;SDS011;10182;52.896;6.496;2022-09-09T00:47:04;14.00;;;11.33;;
20042;SDS011;10182;52.896;6.496;2022-09-09T00:52:26;14.03;;;10.13;;
20042;SDS011;10182;52.896;6.496;2022-09-09T00:57:38;13.60;;;10.30;;
20042;SDS011;10182;52.896;6.496;2022-09-09T01:02:42;14.33;;;10.23;;
20042;SDS011;10182;52.896;6.496;2022-09-09T01:07:55;12.67;;;9.67;;
20042;SDS011;10182;52.896;6.496;2022-09-09T01:13:00;9.70;;;8.70;;
20042;SDS011;10182;52.896;6.496;2022-09-09T01:18:06;12.00;;;10.23;;
20042;SDS011;10182;52.896;6.496;2022-09-09T01:23:19;15.13;;;9.53;;
20042;SDS011;10182;52.896;6.496;2022-09-09T01:28:36;10.73;;;9.63;;
20042;SDS011;10182;52.896;6.496;2022-09-09T01:33:40;11.67;;;8.97;;
20042;SDS011;10182;52.896;6.496;2022-09-09T01:38:41;14.13;;;9.93;;
20042;SDS011;10182;52.896;6.496;2022-09-09T01:43:44;15.07;;;9.43;;
20042;SDS011;10182;52.896;6.496;2022-09-09T01:48:46;13.83;;;9.57;;
20042;SDS011;10182;52.896;6.496;2022-09-09T01:53:48;9.57;;;8.53;;
20042;SDS011;10182;52.896;6.496;2022-09-09T01:58:55;8.57;;;7.70;;
20042;SDS011;10182;52.896;6.496;2022-09-09T02:04:07;12.63;;;8.57;;
20042;SDS011;10182;52.896;6.496;2022-09-09T02:09:17;10.43;;;8.90;;
20042;SDS011;10182;52.896;6.496;2022-09-09T02:14:25;9.50;;;8.23;;
20042;SDS011;10182;52.896;6.496;2022-09-09T02:19:32;13.13;;;7.83;;
20042;SDS011;10182;52.896;6.496;2022-09-09T02:24:37;13.43;;;8.33;;
20042;SDS011;10182;52.896;6.496;2022-09-09T02:29:42;10.30;;;7.73;;
20042;SDS011;10182;52.896;6.496;2022-09-09T02:34:45;12.00;;;8.60;;
20042;SDS011;10182;52.896;6.496;2022-09-09T02:39:50;10.40;;;8.77;;
20042;SDS011;10182;52.896;6.496;2022-09-09T02:44:53;9.80;;;8.80;;
20042;SDS011;10182;52.896;6.496;2022-09-09T02:49:57;12.73;;;8.50;;
20042;SDS011;10182;52.896;6.496;2022-09-09T02:55:06;9.60;;;8.00;;
20042;SDS011;10182;52.896;6.496;2022-09-09T03:00:15;8.03;;;7.20;;
20042;SDS011;10182;52.896;6.496;2022-09-09T03:05:17;9.37;;;8.10;;
20042;SDS011;10182;52.896;6.496;2022-09-09T03:10:18;9.43;;;7.07;;
20042;SDS011;10182;52.896;6.496;2022-09-09T03:15:21;7.80;;;6.70;;
20042;SDS011;10182;52.896;6.496;2022-09-09T03:20:23;8.90;;;6.30;;
20042;SDS011;10182;52.896;6.496;2022-09-09T03:25:26;9.43;;;7.40;;
20042;SDS011;10182;52.896;6.496;2022-09-09T03:30:30;8.30;;;6.70;;
20042;SDS011;10182;52.896;6.496;2022-09-09T03:35:31;8.67;;;5.90;;
20042;SDS011;10182;52.896;6.496;2022-09-09T03:40:33;7.13;;;5.97;;
20042;SDS011;10182;52.896;6.496;2022-09-09T03:45:36;8.40;;;6.50;;
20042;SDS011;10182;52.896;6.496;2022-09-09T03:50:38;10.30;;;7.87;;
20042;SDS011;10182;52.896;6.496;2022-09-09T03:55:43;9.23;;;8.17;;
20042;SDS011;10182;52.896;6.496;2022-09-09T04:00:53;8.90;;;7.93;;
20042;SDS011;10182;52.896;6.496;2022-09-09T04:05:56;10.50;;;8.83;;
20042;SDS011;10182;52.896;6.496;2022-09-09T04:10:59;12.23;;;9.40;;
20042;SDS011;10182;52.896;6.496;2022-09-09T04:16:03;10.23;;;9.17;;
20042;SDS011;10182;52.896;6.496;2022-09-09T04:21:06;10.13;;;9.13;;
20042;SDS011;10182;52.896;6.496;2022-09-09T04:26:08;10.63;;;8.20;;
20042;SDS011;10182;52.896;6.496;2022-09-09T04:31:13;13.83;;;8.80;;
20042;SDS011;10182;52.896;6.496;2022-09-09T04:36:18;14.63;;;8.97;;
20042;SDS011;10182;52.896;6.496;2022-09-09T04:41:20;13.43;;;11.03;;
20042;SDS011;10182;52.896;6.496;2022-09-09T04:46:23;11.90;;;10.60;;
20042;SDS011;10182;52.896;6.496;2022-09-09T04:51:25;13.07;;;10.73;;
20042;SDS011;10182;52.896;6.496;2022-09-09T04:56:27;12.40;;;10.97;;
20042;SDS011;10182;52.896;6.496;2022-09-09T05:01:30;11.67;;;10.27;;
20042;SDS011;10182;52.896;6.496;2022-09-09T05:06:32;13.87;;;10.93;;
20042;SDS011;10182;52.896;6.496;2022-09-09T05:11:34;12.63;;;10.20;;
20042;SDS011;10182;52.896;6.496;2022-09-09T05:16:38;12.70;;;10.37;;
20042;SDS011;10182;52.896;6.496;2022-09-09T05:21:39;11.53;;;10.40;;
20042;SDS011;10182;52.896;6.496;2022-09-09T05:26:41;12.07;;;10.77;;
20042;SDS011;10182;52.896;6.496;2022-09-09T05:31:44;11.87;;;10.63;;
20042;SDS011;10182;52.896;6.496;2022-09-09T05:36:47;11.57;;;10.00;;
20042;SDS011;10182;52.896;6.496;2022-09-09T05:41:48;11.17;;;9.97;;
20042;SDS011;10182;52.896;6.496;2022-09-09T05:46:52;12.67;;;11.07;;
20042;SDS011;10182;52.896;6.496;2022-09-09T05:51:54;13.73;;;11.60;;
20042;SDS011;10182;52.896;6.496;2022-09-09T05:56:56;12.67;;;10.47;;
20042;SDS011;10182;52.896;6.496;2022-09-09T06:01:59;11.20;;;10.10;;
20042;SDS011;10182;52.896;6.496;2022-09-09T06:07:01;12.93;;;10.17;;
20042;SDS011;10182;52.896;6.496;2022-09-09T06:12:03;11.70;;;10.47;;
20042;SDS011;10182;52.896;6.496;2022-09-09T06:17:06;12.67;;;10.43;;
20042;SDS011;10182;52.896;6.496;2022-09-09T06:22:08;10.73;;;9.17;;
20042;SDS011;10182;52.896;6.496;2022-09-09T06:27:12;11.00;;;9.90;;
20042;SDS011;10182;52.896;6.496;2022-09-09T06:32:16;11.50;;;9.57;;
20042;SDS011;10182;52.896;6.496;2022-09-09T06:37:17;15.30;;;10.43;;
20042;SDS011;10182;52.896;6.496;2022-09-09T06:42:19;11.83;;;9.90;;
20042;SDS011;10182;52.896;6.496;2022-09-09T06:47:22;12.63;;;8.53;;
20042;SDS011;10182;52.896;6.496;2022-09-09T06:52:24;10.40;;;9.23;;
20042;SDS011;10182;52.896;6.496;2022-09-09T06:57:26;9.70;;;8.87;;
20042;SDS011;10182;52.896;6.496;2022-09-09T07:02:29;16.03;;;8.83;;
20042;SDS011;10182;52.896;6.496;2022-09-09T07:07:30;11.90;;;8.33;;
20042;SDS011;10182;52.896;6.496;2022-09-09T07:12:32;10.57;;;8.87;;
20042;SDS011;10182;52.896;6.496;2022-09-09T07:17:35;10.70;;;8.27;;
20042;SDS011;10182;52.896;6.496;2022-09-09T07:22:37;9.00;;;8.17;;
20042;SDS011;10182;52.896;6.496;2022-09-09T07:27:38;9.77;;;7.77;;
20042;SDS011;10182;52.896;6.496;2022-09-09T07:32:42;8.80;;;6.57;;
20042;SDS011;10182;52.896;6.496;2022-09-09T07:37:43;9.33;;;7.13;;
20042;SDS011;10182;52.896;6.496;2022-09-09T07:42:45;8.13;;;6.13;;
20042;SDS011;10182;52.896;6.496;2022-09-09T07:47:50;9.40;;;7.40;;
20042;SDS011;10182;52.896;6.496;2022-09-09T07:52:52;9.73;;;7.77;;
20042;SDS011;10182;52.896;6.496;2022-09-09T07:57:55;9.33;;;6.97;;
20042;SDS011;10182;52.896;6.496;2022-09-09T08:02:58;9.20;;;6.90;;
20042;SDS011;10182;52.896;6.496;2022-09-09T08:08:02;7.30;;;6.50;;
20042;SDS011;10182;52.896;6.496;2022-09-09T08:13:04;7.97;;;5.80;;
20042;SDS011;10182;52.896;6.496;2022-09-09T08:18:07;12.70;;;7.33;;
20042;SDS011;10182;52.896;6.496;2022-09-09T08:23:09;8.90;;;6.43;;
20042;SDS011;10182;52.896;6.496;2022-09-09T09:12:13;9.77;;;4.70;;
20042;SDS011;10182;52.896;6.496;2022-09-09T09:17:18;13.23;;;4.70;;
20042;SDS011;10182;52.896;6.496;2022-09-09T09:22:21;10.00;;;4.10;;
20042;SDS011;10182;52.896;6.496;2022-09-09T09:27:32;7.60;;;3.73;;
20042;SDS011;10182;52.896;6.496;2022-09-09T09:32:35;6.27;;;3.53;;
20042;SDS011;10182;52.896;6.496;2022-09-09T09:37:40;7.40;;;3.40;;
20042;SDS011;10182;52.896;6.496;2022-09-09T09:42:53;10.03;;;3.47;;
20042;SDS011;10182;52.896;6.496;2022-09-09T09:47:59;8.47;;;3.47;;
20042;SDS011;10182;52.896;6.496;2022-09-09T09:53:03;11.23;;;3.00;;
20042;SDS011;10182;52.896;6.496;2022-09-09T09:58:14;7.83;;;3.70;;
20042;SDS011;10182;52.896;6.496;2022-09-09T10:03:22;9.30;;;3.00;;
20042;SDS011;10182;52.896;6.496;2022-09-09T10:08:27;11.00;;;2.87;;
20042;SDS011;10182;52.896;6.496;2022-09-09T10:13:31;5.93;;;2.27;;
20042;SDS011;10182;52.896;6.496;2022-09-09T10:18:44;6.83;;;2.53;;
20042;SDS011;10182;52.896;6.496;2022-09-09T10:23:59;8.03;;;2.57;;
20042;SDS011;10182;52.896;6.496;2022-09-09T10:29:18;8.77;;;2.57;;
20042;SDS011;10182;52.896;6.496;2022-09-09T10:34:40;5.90;;;2.53;;
20042;SDS011;10182;52.896;6.496;2022-09-09T10:39:58;8.17;;;2.40;;
20042;SDS011;10182;52.896;6.496;2022-09-09T10:45:08;6.77;;;2.40;;
20042;SDS011;10182;52.896;6.496;2022-09-09T10:50:23;6.30;;;1.90;;
20042;SDS011;10182;52.896;6.496;2022-09-09T10:55:43;5.50;;;2.13;;
20042;SDS011;10182;52.896;6.496;2022-09-09T11:00:49;7.03;;;2.07;;
20042;SDS011;10182;52.896;6.496;2022-09-09T11:05:56;6.17;;;2.10;;
20042;SDS011;10182;52.896;6.496;2022-09-09T11:11:04;7.07;;;2.27;;
20042;SDS011;10182;52.896;6.496;2022-09-09T11:16:17;5.20;;;2.13;;
20042;SDS011;10182;52.896;6.496;2022-09-09T11:21:26;5.37;;;1.70;;
20042;SDS011;10182;52.896;6.496;2022-09-09T11:26:32;6.80;;;2.40;;
20042;SDS011;10182;52.896;6.496;2022-09-09T11:31:46;5.90;;;2.27;;
20042;SDS011;10182;52.896;6.496;2022-09-09T11:37:09;5.60;;;2.23;;
20042;SDS011;10182;52.896;6.496;2022-09-09T11:42:23;4.47;;;1.83;;
20042;SDS011;10182;52.896;6.496;2022-09-09T11:47:28;6.03;;;2.63;;
20042;SDS011;10182;52.896;6.496;2022-09-09T11:52:35;6.40;;;2.10;;
20042;SDS011;10182;52.896;6.496;2022-09-09T11:57:39;7.33;;;2.07;;
20042;SDS011;10182;52.896;6.496;2022-09-09T12:02:49;5.70;;;2.20;;
20042;SDS011;10182;52.896;6.496;2022-09-09T12:07:51;6.40;;;2.33;;
20042;SDS011;10182;52.896;6.496;2022-09-09T12:13:07;5.37;;;2.17;;
20042;SDS011;10182;52.896;6.496;2022-09-09T12:18:14;9.77;;;2.40;;
20042;SDS011;10182;52.896;6.496;2022-09-09T12:23:19;6.10;;;1.73;;
20042;SDS011;10182;52.896;6.496;2022-09-09T12:28:38;5.43;;;1.67;;
20042;SDS011;10182;52.896;6.496;2022-09-09T12:33:46;7.47;;;2.17;;
20042;SDS011;10182;52.896;6.496;2022-09-09T12:38:48;5.60;;;2.20;;
20042;SDS011;10182;52.896;6.496;2022-09-09T12:43:51;5.93;;;2.20;;
20042;SDS011;10182;52.896;6.496;2022-09-09T12:49:18;7.60;;;2.37;;
20042;SDS011;10182;52.896;6.496;2022-09-09T12:54:27;5.63;;;1.83;;
20042;SDS011;10182;52.896;6.496;2022-09-09T12:59:34;5.03;;;1.30;;
20042;SDS011;10182;52.896;6.496;2022-09-09T13:04:39;4.77;;;1.33;;
20042;SDS011;10182;52.896;6.496;2022-09-09T13:09:40;3.33;;;1.70;;
20042;SDS011;10182;52.896;6.496;2022-09-09T13:14:43;3.80;;;1.30;;
20042;SDS011;10182;52.896;6.496;2022-09-09T13:19:49;3.20;;;1.60;;
20042;SDS011;10182;52.896;6.496;2022-09-09T13:24:59;5.60;;;1.40;;
20042;SDS011;10182;52.896;6.496;2022-09-09T13:35:25;3.50;;;1.00;;
20042;SDS011;10182;52.896;6.496;2022-09-09T13:40:27;2.70;;;1.13;;
20042;SDS011;10182;52.896;6.496;2022-09-09T13:45:30;5.43;;;1.30;;
20042;SDS011;10182;52.896;6.496;2022-09-09T13:50:35;6.30;;;1.33;;
20042;SDS011;10182;52.896;6.496;2022-09-09T13:55:37;10.33;;;1.30;;
20042;SDS011;10182;52.896;6.496;2022-09-09T14:00:39;2.87;;;1.07;;
20042;SDS011;10182;52.896;6.496;2022-09-09T14:05:42;3.27;;;1.13;;
20042;SDS011;10182;52.896;6.496;2022-09-09T14:10:45;3.77;;;1.33;;
20042;SDS011;10182;52.896;6.496;2022-09-09T14:15:48;3.90;;;1.50;;
20042;SDS011;10182;52.896;6.496;2022-09-09T14:20:51;5.20;;;1.60;;
20042;SDS011;10182;52.896;6.496;2022-09-09T14:25:53;3.50;;;1.40;;
20042;SDS011;10182;52.896;6.496;2022-09-09T14:30:54;3.13;;;1.37;;
20042;SDS011;10182;52.896;6.496;2022-09-09T14:36:02;3.17;;;1.10;;
20042;SDS011;10182;52.896;6.496;2022-09-09T14:41:05;1.33;;;1.10;;
20042;SDS011;10182;52.896;6.496;2022-09-09T14:46:07;2.10;;;0.87;;
20042;SDS011;10182;52.896;6.496;2022-09-09T14:51:11;4.30;;;1.10;;
20042;SDS011;10182;52.896;6.496;2022-09-09T14:56:15;2.47;;;1.20;;
20042;SDS011;10182;52.896;6.496;2022-09-09T15:01:19;4.00;;;1.33;;
20042;SDS011;10182;52.896;6.496;2022-09-09T15:06:24;3.27;;;1.30;;
20042;SDS011;10182;52.896;6.496;2022-09-09T15:11:27;2.87;;;1.10;;
20042;SDS011;10182;52.896;6.496;2022-09-09T15:16:32;3.37;;;1.20;;
20042;SDS011;10182;52.896;6.496;2022-09-09T15:21:35;2.60;;;1.10;;
20042;SDS011;10182;52.896;6.496;2022-09-09T15:26:37;3.83;;;1.33;;
20042;SDS011;10182;52.896;6.496;2022-09-09T15:31:39;3.23;;;1.17;;
20042;SDS011;10182;52.896;6.496;2022-09-09T15:36:43;3.90;;;1.23;;
20042;SDS011;10182;52.896;6.496;2022-09-09T15:41:48;4.03;;;1.40;;
20042;SDS011;10182;52.896;6.496;2022-09-09T15:46:50;2.50;;;1.30;;
20042;SDS011;10182;52.896;6.496;2022-09-09T15:51:55;3.27;;;1.37;;
20042;SDS011;10182;52.896;6.496;2022-09-09T15:56:59;2.30;;;1.70;;
20042;SDS011;10182;52.896;6.496;2022-09-09T16:02:03;4.07;;;2.00;;
20042;SDS011;10182;52.896;6.496;2022-09-09T16:07:06;3.13;;;1.73;;
20042;SDS011;10182;52.896;6.496;2022-09-09T16:12:08;2.53;;;1.63;;
20042;SDS011;10182;52.896;6.496;2022-09-09T16:17:12;4.27;;;1.90;;
20042;SDS011;10182;52.896;6.496;2022-09-09T16:22:15;5.07;;;2.10;;
20042;SDS011;10182;52.896;6.496;2022-09-09T16:27:18;4.03;;;2.23;;
20042;SDS011;10182;52.896;6.496;2022-09-09T16:32:19;4.67;;;2.30;;
20042;SDS011;10182;52.896;6.496;2022-09-09T16:37:23;4.07;;;2.50;;
20042;SDS011;10182;52.896;6.496;2022-09-09T16:42:25;3.40;;;2.40;;
20042;SDS011;10182;52.896;6.496;2022-09-09T16:47:27;5.53;;;1.97;;
20042;SDS011;10182;52.896;6.496;2022-09-09T16:52:30;4.80;;;3.17;;
20042;SDS011;10182;52.896;6.496;2022-09-09T16:57:32;4.93;;;2.40;;
20042;SDS011;10182;52.896;6.496;2022-09-09T17:02:34;3.60;;;2.10;;
20042;SDS011;10182;52.896;6.496;2022-09-09T17:07:37;4.27;;;2.10;;
20042;SDS011;10182;52.896;6.496;2022-09-09T17:12:38;3.07;;;1.67;;
20042;SDS011;10182;52.896;6.496;2022-09-09T17:17:41;3.63;;;2.50;;
20042;SDS011;10182;52.896;6.496;2022-09-09T17:22:46;7.97;;;3.30;;
20042;SDS011;10182;52.896;6.496;2022-09-09T17:27:49;5.10;;;2.73;;
20042;SDS011;10182;52.896;6.496;2022-09-09T17:32:51;6.30;;;2.40;;
20042;SDS011;10182;52.896;6.496;2022-09-09T17:37:54;4.63;;;2.70;;
20042;SDS011;10182;52.896;6.496;2022-09-09T17:42:56;5.10;;;2.63;;
20042;SDS011;10182;52.896;6.496;2022-09-09T17:47:58;5.93;;;2.33;;
20042;SDS011;10182;52.896;6.496;2022-09-09T17:53:01;5.53;;;2.77;;
20042;SDS011;10182;52.896;6.496;2022-09-09T17:58:03;4.03;;;2.97;;
20042;SDS011;10182;52.896;6.496;2022-09-09T18:03:05;4.23;;;2.80;;
20042;SDS011;10182;52.896;6.496;2022-09-09T18:08:08;3.77;;;2.50;;
20042;SDS011;10182;52.896;6.496;2022-09-09T18:13:09;4.10;;;2.40;;
20042;SDS011;10182;52.896;6.496;2022-09-09T18:18:11;4.33;;;2.00;;
20042;SDS011;10182;52.896;6.496;2022-09-09T18:23:14;5.83;;;2.83;;
20042;SDS011;10182;52.896;6.496;2022-09-09T18:28:16;4.27;;;3.03;;
20042;SDS011;10182;52.896;6.496;2022-09-09T18:33:19;5.87;;;2.70;;
20042;SDS011;10182;52.896;6.496;2022-09-09T18:43:33;6.73;;;3.57;;
20042;SDS011;10182;52.896;6.496;2022-09-09T18:48:34;3.87;;;3.33;;
20042;SDS011;10182;52.896;6.496;2022-09-09T18:53:36;4.27;;;3.23;;
20042;SDS011;10182;52.896;6.496;2022-09-09T18:58:41;5.77;;;3.53;;
20042;SDS011;10182;52.896;6.496;2022-09-09T19:03:43;5.73;;;3.53;;
20042;SDS011;10182;52.896;6.496;2022-09-09T19:08:45;5.77;;;3.27;;
20042;SDS011;10182;52.896;6.496;2022-09-09T19:13:50;3.10;;;2.63;;
20042;SDS011;10182;52.896;6.496;2022-09-09T19:18:53;6.50;;;3.37;;
20042;SDS011;10182;52.896;6.496;2022-09-09T19:23:55;6.20;;;3.77;;
20042;SDS011;10182;52.896;6.496;2022-09-09T19:29:01;6.47;;;4.27;;
20042;SDS011;10182;52.896;6.496;2022-09-09T19:34:03;7.10;;;4.20;;
20042;SDS011;10182;52.896;6.496;2022-09-09T19:39:05;5.93;;;3.80;;
20042;SDS011;10182;52.896;6.496;2022-09-09T19:44:11;7.63;;;4.33;;
20042;SDS011;10182;52.896;6.496;2022-09-09T19:49:15;6.47;;;4.67;;
20042;SDS011;10182;52.896;6.496;2022-09-09T19:54:17;9.40;;;4.57;;
20042;SDS011;10182;52.896;6.496;2022-09-09T19:59:20;9.00;;;4.43;;
20042;SDS011;10182;52.896;6.496;2022-09-09T20:04:21;5.97;;;4.10;;
20042;SDS011;10182;52.896;6.496;2022-09-09T20:09:23;6.50;;;4.73;;
20042;SDS011;10182;52.896;6.496;2022-09-09T20:14:29;6.70;;;4.27;;
20042;SDS011;10182;52.896;6.496;2022-09-09T20:19:31;4.90;;;4.33;;
20042;SDS011;10182;52.896;6.496;2022-09-09T20:24:32;5.70;;;4.40;;
20042;SDS011;10182;52.896;6.496;2022-09-09T20:29:37;6.47;;;5.07;;
20042;SDS011;10182;52.896;6.496;2022-09-09T20:34:39;9.37;;;5.07;;
20042;SDS011;10182;52.896;6.496;2022-09-09T20:39:40;6.40;;;5.20;;
20042;SDS011;10182;52.896;6.496;2022-09-09T20:44:43;6.77;;;4.90;;
20042;SDS011;10182;52.896;6.496;2022-09-09T20:49:46;5.97;;;4.57;;
20042;SDS011;10182;52.896;6.496;2022-09-09T20:54:47;6.33;;;5.00;;
20042;SDS011;10182;52.896;6.496;2022-09-09T20:59:51;7.00;;;4.70;;
20042;SDS011;10182;52.896;6.496;2022-09-09T21:04:53;5.30;;;4.77;;
20042;SDS011;10182;52.896;6.496;2022-09-09T21:09:55;5.10;;;4.10;;
20042;SDS011;10182;52.896;6.496;2022-09-09T21:14:58;7.50;;;5.30;;
20042;SDS011;10182;52.896;6.496;2022-09-09T21:20:00;8.07;;;5.37;;
20042;SDS011;10182;52.896;6.496;2022-09-09T21:25:02;6.73;;;6.03;;
20042;SDS011;10182;52.896;6.496;2022-09-09T21:30:07;8.63;;;7.00;;
20042;SDS011;10182;52.896;6.496;2022-09-09T21:35:10;9.07;;;7.00;;
20042;SDS011;10182;52.896;6.496;2022-09-09T21:40:12;10.17;;;8.30;;
20042;SDS011;10182;52.896;6.496;2022-09-09T21:45:15;10.80;;;8.80;;
20042;SDS011;10182;52.896;6.496;2022-09-09T21:50:18;9.50;;;8.60;;
20042;SDS011;10182;52.896;6.496;2022-09-09T21:55:21;9.87;;;8.97;;
20042;SDS011;10182;52.896;6.496;2022-09-09T22:00:24;12.90;;;8.37;;
20042;SDS011;10182;52.896;6.496;2022-09-09T22:05:26;9.20;;;7.73;;
20042;SDS011;10182;52.896;6.496;2022-09-09T22:10:28;9.23;;;8.23;;
20042;SDS011;10182;52.896;6.496;2022-09-09T22:15:31;10.67;;;8.93;;
20042;SDS011;10182;52.896;6.496;2022-09-09T22:20:38;11.23;;;8.67;;
20042;SDS011;10182;52.896;6.496;2022-09-09T22:25:41;10.17;;;9.20;;
20042;SDS011;10182;52.896;6.496;2022-09-09T22:30:45;10.73;;;9.30;;
20042;SDS011;10182;52.896;6.496;2022-09-09T22:35:46;12.77;;;11.27;;
20042;SDS011;10182;52.896;6.496;2022-09-09T22:40:48;10.43;;;9.33;;
20042;SDS011;10182;52.896;6.496;2022-09-09T22:45:52;12.50;;;10.70;;
20042;SDS011;10182;52.896;6.496;2022-09-09T22:50:59;10.47;;;9.33;;
20042;SDS011;10182;52.896;6.496;2022-09-09T22:56:03;9.57;;;8.40;;
20042;SDS011;10182;52.896;6.496;2022-09-09T23:01:08;10.20;;;8.57;;
20042;SDS011;10182;52.896;6.496;2022-09-09T23:06:14;9.40;;;8.53;;
20042;SDS011;10182;52.896;6.496;2022-09-09T23:11:21;11.47;;;9.00;;
20042;SDS011;10182;52.896;6.496;2022-09-09T23:16:27;10.13;;;9.13;;
20042;SDS011;10182;52.896;6.496;2022-09-09T23:21:31;10.60;;;9.60;;
20042;SDS011;10182;52.896;6.496;2022-09-09T23:26:33;11.13;;;10.03;;
20042;SDS011;10182;52.896;6.496;2022-09-09T23:31:36;10.20;;;8.13;;
20042;SDS011;10182;52.896;6.496;2022-09-09T23:36:39;9.80;;;8.20;;
20042;SDS011;10182;52.896;6.496;2022-09-09T23:41:41;11.93;;;10.63;;
20042;SDS011;10182;52.896;6.496;2022-09-09T23:46:45;12.13;;;9.20;;
20042;SDS011;10182;52.896;6.496;2022-09-09T23:51:46;10.20;;;9.20;;
20042;SDS011;10182;52.896;6.496;2022-09-09T23:56:48;10.63;;;9.73;;
